Time;durP1;ratioP1;P1;durP2;ratioP2;P2;SDS_P1;SDS_P2;PMS_P1;PMS_P2;Temp;Humidity;BMP_temperature;BMP_pressure;BME280_temperature;BME280_humidity;BME280_pressure;Samples;Min_cycle;Max_cycle;Signal;HPM_P1;HPM_P2
2023/06/22 00:01:08;;;;;;;21.07;12.10;;;;;;;;;;6268706;28;20197;-63
2023/06/22 00:04:09;;;;;;;15.07;10.73;;;;;;;;;;6278354;28;20237;-63
2023/06/22 00:07:10;;;;;;;18.10;11.60;;;;;;;;;;6276876;28;20280;-63
2023/06/22 00:10:11;;;;;;;17.27;11.50;;;;;;;;;;6287149;28;20195;-63
2023/06/22 00:13:12;;;;;;;15.23;10.87;;;;;;;;;;6279471;28;20262;-63
2023/06/22 00:16:13;;;;;;;15.37;11.30;;;;;;;;;;6275599;28;20270;-63
2023/06/22 00:19:19;;;;;;;15.80;11.87;;;;;;;;;;6276208;28;20283;-63
2023/06/22 00:22:28;;;;;;;16.07;11.23;;;;;;;;;;6276796;28;20240;-63
2023/06/22 00:25:29;;;;;;;14.50;11.23;;;;;;;;;;6283741;28;20185;-63
2023/06/22 00:28:30;;;;;;;13.27;11.50;;;;;;;;;;6278922;28;20188;-63
2023/06/22 00:31:31;;;;;;;13.13;11.37;;;;;;;;;;6284124;28;20178;-63
2023/06/22 00:34:32;;;;;;;16.13;11.67;;;;;;;;;;6278140;28;20190;-63
2023/06/22 00:37:35;;;;;;;13.83;11.60;;;;;;;;;;6279787;28;20196;-63
2023/06/22 00:40:36;;;;;;;14.93;11.80;;;;;;;;;;6281035;28;20201;-62
2023/06/22 00:43:37;;;;;;;17.20;12.37;;;;;;;;;;6311995;28;20271;-63
2023/06/22 00:46:38;;;;;;;15.23;12.13;;;;;;;;;;6295218;28;20237;-62
2023/06/22 00:49:39;;;;;;;12.13;10.70;;;;;;;;;;6283961;28;20235;-62
2023/06/22 00:52:44;;;;;;;16.23;12.27;;;;;;;;;;6284477;28;20189;-63
2023/06/22 00:55:51;;;;;;;12.87;10.63;;;;;;;;;;6274637;28;20218;-63
2023/06/22 00:58:52;;;;;;;15.37;12.03;;;;;;;;;;6294319;28;20197;-62
2023/06/22 01:01:53;;;;;;;15.03;11.50;;;;;;;;;;6280948;28;20304;-62
2023/06/22 01:04:55;;;;;;;15.10;12.17;;;;;;;;;;6290171;28;20225;-63
2023/06/22 01:07:56;;;;;;;21.30;13.17;;;;;;;;;;6287555;28;20450;-63
2023/06/22 01:11:11;;;;;;;16.07;12.70;;;;;;;;;;6291662;28;20188;-63
2023/06/22 01:14:29;;;;;;;16.70;11.77;;;;;;;;;;6293999;28;20189;-63
2023/06/22 01:17:30;;;;;;;17.73;13.77;;;;;;;;;;6300475;28;20192;-63
2023/06/22 01:20:31;;;;;;;18.17;11.90;;;;;;;;;;6285737;28;20190;-63
2023/06/22 01:23:47;;;;;;;19.63;13.23;;;;;;;;;;6276557;28;20204;-63
2023/06/22 01:27:01;;;;;;;21.07;11.77;;;;;;;;;;6276023;28;20182;-63
2023/06/22 01:30:03;;;;;;;17.17;10.97;;;;;;;;;;6292989;28;20267;-62
2023/06/22 01:33:05;;;;;;;19.63;11.93;;;;;;;;;;6290607;28;20334;-62
2023/06/22 01:36:07;;;;;;;15.97;11.87;;;;;;;;;;6278448;28;20198;-62
2023/06/22 01:39:08;;;;;;;16.30;11.63;;;;;;;;;;6283928;28;20197;-62
2023/06/22 01:42:10;;;;;;;15.47;10.77;;;;;;;;;;6277412;28;20227;-62
2023/06/22 01:45:12;;;;;;;17.03;11.27;;;;;;;;;;6281404;28;20245;-62
2023/06/22 01:48:13;;;;;;;16.83;11.17;;;;;;;;;;6279434;28;20252;-62
2023/06/22 01:51:14;;;;;;;17.63;11.30;;;;;;;;;;6293602;28;20193;-63
2023/06/22 01:54:15;;;;;;;18.07;11.20;;;;;;;;;;6293326;28;20197;-63
2023/06/22 01:57:17;;;;;;;16.50;10.93;;;;;;;;;;6287116;28;20193;-63
2023/06/22 02:00:23;;;;;;;16.00;10.90;;;;;;;;;;6291184;28;20311;-63
2023/06/22 02:03:27;;;;;;;14.50;10.73;;;;;;;;;;6274387;28;20210;-63
2023/06/22 02:06:34;;;;;;;18.37;11.83;;;;;;;;;;6300308;28;20181;-62
2023/06/22 02:09:37;;;;;;;15.10;11.93;;;;;;;;;;6295681;28;20182;-63
2023/06/22 02:12:38;;;;;;;19.27;12.27;;;;;;;;;;6273224;28;20179;-63
2023/06/22 02:15:39;;;;;;;14.63;11.53;;;;;;;;;;6289929;28;20217;-62
2023/06/22 02:18:46;;;;;;;17.47;10.90;;;;;;;;;;6283769;28;20217;-62
2023/06/22 02:21:47;;;;;;;18.40;11.57;;;;;;;;;;6277229;28;20186;-62
2023/06/22 02:24:48;;;;;;;17.67;11.40;;;;;;;;;;6291881;28;20213;-62
2023/06/22 02:27:49;;;;;;;15.10;10.73;;;;;;;;;;6282704;28;20245;-62
2023/06/22 02:30:50;;;;;;;14.40;11.30;;;;;;;;;;6275108;28;20181;-62
2023/06/22 02:33:51;;;;;;;17.50;10.73;;;;;;;;;;6279214;28;20263;-62
2023/06/22 02:36:52;;;;;;;19.00;11.30;;;;;;;;;;6274150;28;20288;-62
2023/06/22 02:39:53;;;;;;;14.97;11.57;;;;;;;;;;6274863;28;20190;-62
2023/06/22 02:42:54;;;;;;;17.63;11.33;;;;;;;;;;6272192;28;20212;-62
2023/06/22 02:45:56;;;;;;;15.33;12.60;;;;;;;;;;6271190;28;20237;-62
2023/06/22 02:48:57;;;;;;;17.77;12.63;;;;;;;;;;6291849;28;20189;-62
2023/06/22 02:51:58;;;;;;;16.30;12.87;;;;;;;;;;6280145;28;20185;-62
2023/06/22 02:54:59;;;;;;;16.87;12.27;;;;;;;;;;6299443;28;20194;-62
2023/06/22 02:58:04;;;;;;;16.30;12.53;;;;;;;;;;6283372;28;20236;-62
2023/06/22 03:01:06;;;;;;;13.83;11.83;;;;;;;;;;6263511;28;20201;-62
2023/06/22 03:04:07;;;;;;;15.13;12.00;;;;;;;;;;6278379;28;20225;-63
2023/06/22 03:07:08;;;;;;;17.37;13.23;;;;;;;;;;6279785;28;20194;-62
2023/06/22 03:10:10;;;;;;;16.77;12.07;;;;;;;;;;6275415;28;20747;-62
2023/06/22 03:13:11;;;;;;;18.07;12.80;;;;;;;;;;6280494;28;20200;-62
2023/06/22 03:16:12;;;;;;;18.13;13.03;;;;;;;;;;6282672;28;20196;-63
2023/06/22 03:19:13;;;;;;;20.33;13.17;;;;;;;;;;6276568;28;20188;-62
2023/06/22 03:22:15;;;;;;;18.43;12.63;;;;;;;;;;6280492;28;20280;-62
2023/06/22 03:25:16;;;;;;;15.27;12.90;;;;;;;;;;6270193;28;20220;-62
2023/06/22 03:28:17;;;;;;;14.37;12.77;;;;;;;;;;6269412;28;20197;-62
2023/06/22 03:31:21;;;;;;;16.90;12.80;;;;;;;;;;6287727;28;20212;-62
2023/06/22 03:34:22;;;;;;;19.37;13.93;;;;;;;;;;6276218;28;20189;-62
2023/06/22 03:37:23;;;;;;;16.70;12.10;;;;;;;;;;6276617;28;20197;-62
2023/06/22 03:40:24;;;;;;;17.97;13.07;;;;;;;;;;6280065;28;20189;-62
2023/06/22 03:43:25;;;;;;;17.60;13.37;;;;;;;;;;6279857;28;20209;-62
2023/06/22 03:46:26;;;;;;;18.70;13.07;;;;;;;;;;6280353;28;20325;-62
2023/06/22 03:49:27;;;;;;;16.90;13.57;;;;;;;;;;6280989;28;20193;-62
2023/06/22 03:52:28;;;;;;;18.10;14.20;;;;;;;;;;6282032;28;20189;-62
2023/06/22 03:55:30;;;;;;;15.90;14.30;;;;;;;;;;6270721;28;20220;-62
2023/06/22 03:58:32;;;;;;;21.70;14.93;;;;;;;;;;6287056;28;20281;-62
2023/06/22 04:01:33;;;;;;;19.20;14.23;;;;;;;;;;6276104;28;20186;-62
2023/06/22 04:04:35;;;;;;;18.53;14.67;;;;;;;;;;6309960;28;20285;-62
2023/06/22 04:07:39;;;;;;;25.63;14.73;;;;;;;;;;6281583;28;20193;-62
2023/06/22 04:10:40;;;;;;;20.67;15.23;;;;;;;;;;6265400;28;20189;-63
2023/06/22 04:13:41;;;;;;;21.70;14.10;;;;;;;;;;6278588;28;20213;-62
2023/06/22 04:16:42;;;;;;;19.20;15.00;;;;;;;;;;6278750;28;20189;-63
2023/06/22 04:19:43;;;;;;;18.60;14.57;;;;;;;;;;6279412;28;20194;-63
2023/06/22 04:22:45;;;;;;;17.57;14.40;;;;;;;;;;6279700;28;20192;-63
2023/06/22 04:25:46;;;;;;;19.37;14.20;;;;;;;;;;6270051;28;20269;-62
2023/06/22 04:28:55;;;;;;;16.87;14.03;;;;;;;;;;6271772;28;20194;-63
2023/06/22 04:31:58;;;;;;;16.97;15.20;;;;;;;;;;6288237;28;20182;-62
2023/06/22 04:35:04;;;;;;;22.63;15.77;;;;;;;;;;6273564;28;20252;-62
2023/06/22 04:38:05;;;;;;;21.67;15.57;;;;;;;;;;6278858;28;20185;-62
2023/06/22 04:41:06;;;;;;;18.70;16.20;;;;;;;;;;6287300;28;20240;-63
2023/06/22 04:44:07;;;;;;;21.50;15.93;;;;;;;;;;6285076;28;20267;-63
2023/06/22 04:47:08;;;;;;;18.33;16.37;;;;;;;;;;6286668;28;20237;-62
2023/06/22 04:50:09;;;;;;;19.17;15.77;;;;;;;;;;6290056;28;20186;-63
2023/06/22 04:53:12;;;;;;;19.83;15.57;;;;;;;;;;6294341;28;20182;-62
2023/06/22 04:56:15;;;;;;;18.07;15.70;;;;;;;;;;6269999;28;20191;-62
2023/06/22 04:59:18;;;;;;;22.83;15.80;;;;;;;;;;6283801;28;20186;-62
2023/06/22 05:02:20;;;;;;;23.30;16.20;;;;;;;;;;6286509;28;20263;-63
2023/06/22 05:05:21;;;;;;;26.97;16.93;;;;;;;;;;6282902;28;20213;-62
2023/06/22 05:08:26;;;;;;;20.23;16.30;;;;;;;;;;6288779;28;20182;-63
2023/06/22 05:11:28;;;;;;;19.40;15.47;;;;;;;;;;6278416;28;20217;-62
2023/06/22 05:14:30;;;;;;;25.40;16.93;;;;;;;;;;6293495;28;20197;-64
2023/06/22 05:17:31;;;;;;;25.80;17.57;;;;;;;;;;6291628;28;20189;-62
2023/06/22 05:20:34;;;;;;;22.03;15.83;;;;;;;;;;6300649;28;20182;-63
2023/06/22 05:23:35;;;;;;;22.73;17.17;;;;;;;;;;6279131;28;20210;-63
2023/06/22 05:26:36;;;;;;;18.90;17.03;;;;;;;;;;6274162;28;20246;-63
2023/06/22 05:29:37;;;;;;;21.17;17.23;;;;;;;;;;6287455;28;20192;-63
2023/06/22 05:32:39;;;;;;;22.87;18.07;;;;;;;;;;6285794;28;20208;-63
2023/06/22 05:35:40;;;;;;;23.67;16.77;;;;;;;;;;6280065;28;20188;-63
2023/06/22 05:38:41;;;;;;;28.43;17.67;;;;;;;;;;6279445;28;20181;-63
2023/06/22 05:41:45;;;;;;;20.83;16.17;;;;;;;;;;6273158;28;20186;-63
2023/06/22 05:44:46;;;;;;;21.30;16.90;;;;;;;;;;6282921;28;20201;-63
2023/06/22 05:47:47;;;;;;;21.57;17.67;;;;;;;;;;6286625;28;20203;-63
2023/06/22 05:50:49;;;;;;;21.67;18.03;;;;;;;;;;6275896;28;20181;-63
2023/06/22 05:53:50;;;;;;;21.07;17.13;;;;;;;;;;6271015;28;20216;-63
2023/06/22 05:56:51;;;;;;;26.03;16.93;;;;;;;;;;6287632;28;20188;-63
2023/06/22 05:59:53;;;;;;;20.90;16.63;;;;;;;;;;6288534;28;20189;-63
2023/06/22 06:02:54;;;;;;;23.93;17.37;;;;;;;;;;6278544;28;20260;-62
2023/06/22 06:05:55;;;;;;;24.53;17.87;;;;;;;;;;6286608;28;20192;-62
2023/06/22 06:08:56;;;;;;;21.40;17.77;;;;;;;;;;6287110;28;20213;-63
2023/06/22 06:11:57;;;;;;;21.27;17.93;;;;;;;;;;6284057;28;20203;-63
2023/06/22 06:14:58;;;;;;;22.40;17.50;;;;;;;;;;6291699;28;20196;-63
2023/06/22 06:18:00;;;;;;;18.90;16.90;;;;;;;;;;6283568;28;20199;-63
2023/06/22 06:21:01;;;;;;;20.13;17.23;;;;;;;;;;6271759;28;20193;-62
2023/06/22 06:24:02;;;;;;;19.17;17.17;;;;;;;;;;6275794;28;20208;-63
2023/06/22 06:27:04;;;;;;;24.50;17.73;;;;;;;;;;6274095;28;20191;-62
2023/06/22 06:30:06;;;;;;;20.63;17.80;;;;;;;;;;6275308;28;20193;-63
2023/06/22 06:33:08;;;;;;;19.30;17.23;;;;;;;;;;6280432;28;20216;-63
2023/06/22 06:36:09;;;;;;;21.10;18.93;;;;;;;;;;6291960;28;20197;-62
2023/06/22 06:39:10;;;;;;;20.37;17.77;;;;;;;;;;6269610;28;20195;-62
2023/06/22 06:42:11;;;;;;;19.63;17.47;;;;;;;;;;6280204;28;20259;-62
2023/06/22 06:45:13;;;;;;;21.00;18.80;;;;;;;;;;6266774;28;20243;-62
2023/06/22 06:48:14;;;;;;;19.00;17.00;;;;;;;;;;6275273;28;20189;-62
2023/06/22 06:51:15;;;;;;;19.50;17.50;;;;;;;;;;6272223;28;20267;-62
2023/06/22 06:54:16;;;;;;;20.67;17.70;;;;;;;;;;6284155;28;20195;-62
2023/06/22 06:57:17;;;;;;;23.87;17.83;;;;;;;;;;6276041;28;20203;-63
2023/06/22 07:00:18;;;;;;;19.70;17.63;;;;;;;;;;6274220;28;20320;-63
2023/06/22 07:03:19;;;;;;;20.17;18.13;;;;;;;;;;6270430;28;20217;-63
2023/06/22 07:06:20;;;;;;;22.43;18.47;;;;;;;;;;6285720;28;20196;-63
2023/06/22 07:09:21;;;;;;;22.47;18.20;;;;;;;;;;6274662;28;20199;-63
2023/06/22 07:12:22;;;;;;;19.67;17.33;;;;;;;;;;6292451;28;20185;-63
2023/06/22 07:15:23;;;;;;;18.43;16.57;;;;;;;;;;6276608;28;20192;-63
2023/06/22 07:18:26;;;;;;;20.23;17.93;;;;;;;;;;6268137;28;20337;-63
2023/06/22 07:21:27;;;;;;;19.07;17.03;;;;;;;;;;6285818;28;20599;-63
2023/06/22 07:24:28;;;;;;;18.77;16.87;;;;;;;;;;6290592;28;20209;-63
2023/06/22 07:27:34;;;;;;;19.83;15.83;;;;;;;;;;6269723;28;20200;-63
2023/06/22 07:30:35;;;;;;;18.53;16.83;;;;;;;;;;6275217;28;20186;-63
2023/06/22 07:33:36;;;;;;;17.97;15.87;;;;;;;;;;6289231;28;20192;-62
2023/06/22 07:36:38;;;;;;;21.43;16.40;;;;;;;;;;6280004;28;20239;-63
2023/06/22 07:39:39;;;;;;;18.37;15.47;;;;;;;;;;6284731;28;20185;-63
2023/06/22 07:42:40;;;;;;;18.83;13.13;;;;;;;;;;6271926;28;20197;-63
2023/06/22 07:45:42;;;;;;;19.83;14.87;;;;;;;;;;6271133;28;20240;-63
2023/06/22 07:48:43;;;;;;;18.23;13.43;;;;;;;;;;6270411;28;20239;-63
2023/06/22 07:51:44;;;;;;;17.60;14.53;;;;;;;;;;6273143;28;20224;-63
2023/06/22 07:54:45;;;;;;;15.37;12.83;;;;;;;;;;6272872;28;20285;-63
2023/06/22 07:57:48;;;;;;;16.73;13.40;;;;;;;;;;6272684;28;20269;-63
2023/06/22 08:00:49;;;;;;;17.20;13.67;;;;;;;;;;6285261;28;20193;-62
2023/06/22 08:03:50;;;;;;;17.43;14.37;;;;;;;;;;6268532;28;20210;-62
2023/06/22 08:06:51;;;;;;;15.37;12.87;;;;;;;;;;6273317;28;20189;-62
2023/06/22 08:09:52;;;;;;;15.03;12.97;;;;;;;;;;6274025;28;20210;-63
2023/06/22 08:12:53;;;;;;;20.27;13.33;;;;;;;;;;6273419;28;20194;-63
2023/06/22 08:15:54;;;;;;;16.87;13.83;;;;;;;;;;6281347;28;20204;-63
2023/06/22 08:18:55;;;;;;;16.13;13.47;;;;;;;;;;6273477;28;20202;-64
2023/06/22 08:21:57;;;;;;;15.33;13.70;;;;;;;;;;6282554;28;20189;-63
2023/06/22 08:24:58;;;;;;;16.13;14.07;;;;;;;;;;6277735;28;20407;-63
2023/06/22 08:27:59;;;;;;;16.80;13.90;;;;;;;;;;6270694;28;20189;-63
2023/06/22 08:31:01;;;;;;;15.77;14.03;;;;;;;;;;6290709;28;20192;-63
2023/06/22 08:34:02;;;;;;;15.43;13.83;;;;;;;;;;6284481;28;20197;-63
2023/06/22 08:37:06;;;;;;;14.93;12.60;;;;;;;;;;6290041;28;20205;-63
2023/06/22 08:40:09;;;;;;;17.50;13.93;;;;;;;;;;6277880;28;20193;-63
2023/06/22 08:43:10;;;;;;;15.77;12.97;;;;;;;;;;6293575;28;20244;-63
2023/06/22 08:46:14;;;;;;;15.97;13.70;;;;;;;;;;6285614;28;20233;-63
2023/06/22 08:49:15;;;;;;;18.30;13.23;;;;;;;;;;6281406;28;20200;-63
2023/06/22 08:52:18;;;;;;;16.57;14.83;;;;;;;;;;6280089;28;20205;-63
2023/06/22 08:55:19;;;;;;;16.67;13.97;;;;;;;;;;6303141;28;20193;-63
2023/06/22 08:58:21;;;;;;;14.23;12.03;;;;;;;;;;6300767;28;20196;-63
2023/06/22 09:01:22;;;;;;;16.07;13.00;;;;;;;;;;6295765;28;20280;-63
2023/06/22 09:04:23;;;;;;;14.50;12.97;;;;;;;;;;6270647;28;20220;-63
2023/06/22 09:07:25;;;;;;;14.53;13.07;;;;;;;;;;6274431;28;20198;-63
2023/06/22 09:10:27;;;;;;;15.93;13.30;;;;;;;;;;6282398;28;20184;-63
2023/06/22 09:13:31;;;;;;;14.27;12.63;;;;;;;;;;6271926;28;20189;-63
2023/06/22 09:16:33;;;;;;;15.67;12.93;;;;;;;;;;6275855;28;20196;-63
2023/06/22 09:19:34;;;;;;;14.07;12.67;;;;;;;;;;6299526;28;20199;-63
2023/06/22 09:22:35;;;;;;;15.63;12.83;;;;;;;;;;6283597;28;20195;-63
2023/06/22 09:25:36;;;;;;;16.47;13.43;;;;;;;;;;6276846;28;20216;-63
2023/06/22 09:28:37;;;;;;;13.80;12.37;;;;;;;;;;6270982;28;20204;-63
2023/06/22 09:31:38;;;;;;;14.90;13.37;;;;;;;;;;6273712;28;20193;-63
2023/06/22 09:34:39;;;;;;;14.57;13.07;;;;;;;;;;6279565;28;20200;-63
2023/06/22 09:37:40;;;;;;;15.40;12.70;;;;;;;;;;6280062;28;20191;-63
2023/06/22 09:40:41;;;;;;;14.70;12.93;;;;;;;;;;6256838;28;20197;-63
2023/06/22 09:43:42;;;;;;;15.67;13.67;;;;;;;;;;6285047;28;20229;-63
2023/06/22 09:46:44;;;;;;;13.73;12.37;;;;;;;;;;6283951;28;20233;-63
2023/06/22 09:49:45;;;;;;;13.33;11.73;;;;;;;;;;6279203;28;20180;-64
2023/06/22 09:52:50;;;;;;;14.27;12.77;;;;;;;;;;6271353;28;20243;-63
2023/06/22 09:55:51;;;;;;;14.47;12.97;;;;;;;;;;6290423;28;20196;-63
2023/06/22 09:58:52;;;;;;;15.30;12.73;;;;;;;;;;6277733;28;20211;-63
2023/06/22 10:01:53;;;;;;;15.43;12.27;;;;;;;;;;6281540;28;20254;-63
2023/06/22 10:04:54;;;;;;;16.47;13.27;;;;;;;;;;6275946;28;20222;-63
2023/06/22 10:07:55;;;;;;;14.73;13.37;;;;;;;;;;6288393;28;20200;-63
2023/06/22 10:10:56;;;;;;;22.30;12.73;;;;;;;;;;6283428;28;20187;-63
2023/06/22 10:13:57;;;;;;;17.17;12.07;;;;;;;;;;6285533;28;20209;-63
2023/06/22 10:16:59;;;;;;;13.07;11.77;;;;;;;;;;6285327;28;20200;-63
2023/06/22 10:20:05;;;;;;;14.20;11.93;;;;;;;;;;6276150;28;20205;-63
2023/06/22 10:23:06;;;;;;;13.13;11.73;;;;;;;;;;6284568;28;20206;-63
2023/06/22 10:26:07;;;;;;;16.23;12.47;;;;;;;;;;6277444;28;20258;-63
2023/06/22 10:29:08;;;;;;;13.30;11.90;;;;;;;;;;6270628;28;20194;-63
2023/06/22 10:32:09;;;;;;;14.27;11.37;;;;;;;;;;6283620;28;20193;-63
2023/06/22 10:35:13;;;;;;;14.67;12.20;;;;;;;;;;6282860;28;20193;-63
2023/06/22 10:38:14;;;;;;;13.00;11.80;;;;;;;;;;6277242;28;20208;-63
2023/06/22 10:41:16;;;;;;;14.53;11.80;;;;;;;;;;6289555;28;20204;-63
2023/06/22 10:44:17;;;;;;;15.97;11.83;;;;;;;;;;6280617;28;20213;-63
2023/06/22 10:47:18;;;;;;;16.30;11.07;;;;;;;;;;6287434;28;20366;-63
2023/06/22 10:50:20;;;;;;;14.87;11.93;;;;;;;;;;6284627;28;20189;-63
2023/06/22 10:53:21;;;;;;;16.07;12.23;;;;;;;;;;6276635;28;20197;-63
2023/06/22 10:56:22;;;;;;;17.40;12.07;;;;;;;;;;6294250;28;20283;-63
2023/06/22 10:59:24;;;;;;;13.77;12.30;;;;;;;;;;6276377;28;20316;-63
2023/06/22 11:02:25;;;;;;;13.30;11.77;;;;;;;;;;6281484;28;20201;-63
2023/06/22 11:05:26;;;;;;;13.93;11.37;;;;;;;;;;6285220;28;20249;-63
2023/06/22 11:08:27;;;;;;;11.97;10.30;;;;;;;;;;6270481;28;20193;-63
2023/06/22 11:11:28;;;;;;;14.77;10.87;;;;;;;;;;6271718;28;20217;-63
2023/06/22 11:14:29;;;;;;;12.93;11.50;;;;;;;;;;6273041;28;20197;-63
2023/06/22 11:17:30;;;;;;;14.47;11.67;;;;;;;;;;6283627;28;20186;-63
2023/06/22 11:20:34;;;;;;;13.93;11.90;;;;;;;;;;6273804;28;20189;-63
2023/06/22 11:23:35;;;;;;;12.50;11.10;;;;;;;;;;6271506;28;20217;-63
2023/06/22 11:26:36;;;;;;;16.20;12.20;;;;;;;;;;6278413;28;20281;-63
2023/06/22 11:29:39;;;;;;;14.30;11.50;;;;;;;;;;6269129;28;20193;-63
2023/06/22 11:32:40;;;;;;;16.37;12.80;;;;;;;;;;6280230;28;20185;-63
2023/06/22 11:35:41;;;;;;;16.63;12.10;;;;;;;;;;6277940;28;20193;-63
2023/06/22 11:38:42;;;;;;;14.70;11.80;;;;;;;;;;6271516;28;20247;-62
2023/06/22 11:41:43;;;;;;;15.37;11.90;;;;;;;;;;6281630;28;20185;-63
2023/06/22 11:44:44;;;;;;;15.87;12.37;;;;;;;;;;6280135;28;20270;-63
2023/06/22 11:47:45;;;;;;;15.30;12.07;;;;;;;;;;6287547;28;20288;-63
2023/06/22 11:50:46;;;;;;;14.47;12.43;;;;;;;;;;6281786;28;20211;-63
2023/06/22 11:53:47;;;;;;;15.20;12.13;;;;;;;;;;6288714;28;20197;-62
2023/06/22 11:56:48;;;;;;;13.67;12.13;;;;;;;;;;6274021;28;20192;-62
2023/06/22 11:59:49;;;;;;;13.67;12.13;;;;;;;;;;6279191;28;20226;-62
2023/06/22 12:02:51;;;;;;;14.37;11.77;;;;;;;;;;6278168;28;20288;-61
2023/06/22 12:05:52;;;;;;;13.97;11.93;;;;;;;;;;6296614;28;20182;-61
2023/06/22 12:08:53;;;;;;;13.13;11.83;;;;;;;;;;6283591;28;20189;-61
2023/06/22 12:11:54;;;;;;;13.20;11.13;;;;;;;;;;6285745;28;20247;-61
2023/06/22 12:14:55;;;;;;;12.53;11.23;;;;;;;;;;6283720;28;20192;-63
2023/06/22 12:17:56;;;;;;;11.90;10.70;;;;;;;;;;6276959;28;20201;-60
2023/06/22 12:20:57;;;;;;;14.80;11.73;;;;;;;;;;6284667;28;20225;-61
2023/06/22 12:23:58;;;;;;;15.93;11.17;;;;;;;;;;6291769;28;20220;-61
2023/06/22 12:26:59;;;;;;;12.83;11.60;;;;;;;;;;6285310;28;20196;-62
2023/06/22 12:30:00;;;;;;;13.63;12.20;;;;;;;;;;6282879;28;20258;-62
2023/06/22 12:33:01;;;;;;;13.33;11.83;;;;;;;;;;6292906;28;20198;-62
2023/06/22 12:36:04;;;;;;;11.60;10.30;;;;;;;;;;6290644;28;20193;-62
2023/06/22 12:39:05;;;;;;;13.03;11.70;;;;;;;;;;6291697;28;20339;-62
2023/06/22 12:42:08;;;;;;;12.33;11.13;;;;;;;;;;6277185;28;20185;-64
2023/06/22 12:45:09;;;;;;;13.87;11.87;;;;;;;;;;6273865;28;20237;-63
2023/06/22 12:48:10;;;;;;;15.00;11.70;;;;;;;;;;6280088;28;20219;-63
2023/06/22 12:51:11;;;;;;;13.37;11.27;;;;;;;;;;6283203;28;20224;-63
2023/06/22 12:54:12;;;;;;;15.10;11.77;;;;;;;;;;6286935;28;20292;-63
2023/06/22 12:57:13;;;;;;;15.37;12.20;;;;;;;;;;6282163;28;20262;-63
2023/06/22 13:00:15;;;;;;;14.93;11.47;;;;;;;;;;6278579;28;20197;-63
2023/06/22 13:03:16;;;;;;;15.20;11.83;;;;;;;;;;6281616;28;20288;-63
2023/06/22 13:06:17;;;;;;;17.13;11.60;;;;;;;;;;6296907;28;20193;-62
2023/06/22 13:09:19;;;;;;;17.73;11.83;;;;;;;;;;6282790;28;20212;-62
2023/06/22 13:12:21;;;;;;;18.17;12.27;;;;;;;;;;6289988;28;20196;-62
2023/06/22 13:15:22;;;;;;;18.63;12.30;;;;;;;;;;6296319;28;20199;-62
2023/06/22 13:18:23;;;;;;;15.93;11.70;;;;;;;;;;6276827;28;20190;-62
2023/06/22 13:21:24;;;;;;;16.53;11.90;;;;;;;;;;6284975;28;20188;-62
2023/06/22 13:24:25;;;;;;;12.67;11.23;;;;;;;;;;6280828;28;20206;-62
2023/06/22 13:27:26;;;;;;;14.53;12.30;;;;;;;;;;6289890;28;20221;-62
2023/06/22 13:30:27;;;;;;;14.80;11.70;;;;;;;;;;6279797;28;20279;-62
2023/06/22 13:33:28;;;;;;;14.47;11.47;;;;;;;;;;6278329;28;20211;-62
2023/06/22 13:36:30;;;;;;;16.27;12.03;;;;;;;;;;6279823;28;20204;-62
2023/06/22 13:39:31;;;;;;;14.53;12.00;;;;;;;;;;6280782;28;20199;-62
2023/06/22 13:42:32;;;;;;;12.67;11.30;;;;;;;;;;6286064;28;20220;-62
2023/06/22 13:45:33;;;;;;;13.90;11.80;;;;;;;;;;6281182;28;20230;-62
2023/06/22 13:48:34;;;;;;;16.40;11.87;;;;;;;;;;6302856;28;20189;-62
2023/06/22 13:51:36;;;;;;;13.37;11.33;;;;;;;;;;6295010;28;20327;-62
2023/06/22 13:54:37;;;;;;;15.47;11.83;;;;;;;;;;6271566;28;20202;-62
2023/06/22 13:57:38;;;;;;;18.07;12.10;;;;;;;;;;6271634;28;20219;-62
2023/06/22 14:00:39;;;;;;;14.00;11.90;;;;;;;;;;6302017;28;20219;-62
2023/06/22 14:03:40;;;;;;;14.30;10.83;;;;;;;;;;6286774;28;20208;-62
2023/06/22 14:06:41;;;;;;;12.87;11.60;;;;;;;;;;6278161;28;20220;-62
2023/06/22 14:09:42;;;;;;;13.77;11.43;;;;;;;;;;6271936;28;20284;-62
2023/06/22 14:12:44;;;;;;;16.37;11.50;;;;;;;;;;6275004;28;20198;-62
2023/06/22 14:15:48;;;;;;;15.60;12.37;;;;;;;;;;6283853;28;20197;-62
2023/06/22 14:18:49;;;;;;;13.13;11.33;;;;;;;;;;6276943;28;20193;-62
2023/06/22 14:21:50;;;;;;;13.20;11.73;;;;;;;;;;6277641;28;20186;-62
2023/06/22 14:24:51;;;;;;;18.23;12.97;;;;;;;;;;6278901;28;20255;-62
2023/06/22 14:27:52;;;;;;;14.07;12.33;;;;;;;;;;6284983;28;20182;-62
2023/06/22 14:30:53;;;;;;;15.27;11.70;;;;;;;;;;6275730;28;20193;-62
2023/06/22 14:33:54;;;;;;;16.73;12.50;;;;;;;;;;6273541;28;20200;-62
2023/06/22 14:36:55;;;;;;;13.87;12.37;;;;;;;;;;6279131;28;20197;-62
2023/06/22 14:39:56;;;;;;;12.47;11.27;;;;;;;;;;6271656;28;20197;-62
2023/06/22 14:42:57;;;;;;;14.80;12.50;;;;;;;;;;6279085;28;20193;-62
2023/06/22 14:45:58;;;;;;;14.90;12.23;;;;;;;;;;6285672;28;20242;-62
2023/06/22 14:48:59;;;;;;;15.27;12.20;;;;;;;;;;6278138;28;20185;-62
2023/06/22 14:52:00;;;;;;;16.37;12.23;;;;;;;;;;6293584;28;20189;-62
2023/06/22 14:55:01;;;;;;;13.50;12.07;;;;;;;;;;6272003;28;20204;-62
2023/06/22 14:58:02;;;;;;;16.13;12.73;;;;;;;;;;6284903;28;20292;-62
2023/06/22 15:01:03;;;;;;;17.10;12.27;;;;;;;;;;6274796;28;20197;-62
2023/06/22 15:04:04;;;;;;;13.00;11.83;;;;;;;;;;6283630;28;20213;-62
2023/06/22 15:07:05;;;;;;;17.87;13.27;;;;;;;;;;6291760;28;20185;-62
2023/06/22 15:10:07;;;;;;;14.27;12.77;;;;;;;;;;6294742;28;20185;-62
2023/06/22 15:13:08;;;;;;;15.43;12.93;;;;;;;;;;6270813;28;20193;-62
2023/06/22 15:16:09;;;;;;;13.17;11.77;;;;;;;;;;6284986;28;20246;-62
2023/06/22 15:19:12;;;;;;;13.83;12.33;;;;;;;;;;6291972;28;20185;-62
2023/06/22 15:22:13;;;;;;;13.80;12.37;;;;;;;;;;6288457;28;20261;-62
2023/06/22 15:25:14;;;;;;;13.87;11.97;;;;;;;;;;6275759;28;20220;-62
2023/06/22 15:28:15;;;;;;;16.20;12.43;;;;;;;;;;6269559;28;20190;-62
2023/06/22 15:31:16;;;;;;;15.47;12.87;;;;;;;;;;6257856;28;20290;-62
2023/06/22 15:34:17;;;;;;;19.00;12.53;;;;;;;;;;6279323;28;20197;-62
2023/06/22 15:37:18;;;;;;;14.33;12.47;;;;;;;;;;6280612;28;20208;-62
2023/06/22 15:40:19;;;;;;;14.17;11.87;;;;;;;;;;6281440;28;20193;-62
2023/06/22 15:43:20;;;;;;;16.70;12.83;;;;;;;;;;6293571;28;20217;-62
2023/06/22 15:46:21;;;;;;;19.20;12.53;;;;;;;;;;6299207;28;20228;-62
2023/06/22 15:49:22;;;;;;;14.40;13.00;;;;;;;;;;6281224;28;20189;-62
2023/06/22 15:52:23;;;;;;;17.87;13.83;;;;;;;;;;6279808;28;20193;-63
2023/06/22 15:55:26;;;;;;;21.03;11.67;;;;;;;;;;6284235;28;20287;-62
2023/06/22 15:58:27;;;;;;;16.83;12.30;;;;;;;;;;6300938;28;20276;-62
2023/06/22 16:01:28;;;;;;;18.80;12.53;;;;;;;;;;6281813;28;20190;-62
2023/06/22 16:04:29;;;;;;;14.50;13.00;;;;;;;;;;6275418;28;20507;-62
2023/06/22 16:07:30;;;;;;;14.20;12.90;;;;;;;;;;6279287;28;20193;-62
2023/06/22 16:10:31;;;;;;;15.60;13.93;;;;;;;;;;6291283;28;20193;-61
2023/06/22 16:13:32;;;;;;;15.00;13.43;;;;;;;;;;6290441;28;20193;-61
2023/06/22 16:16:33;;;;;;;15.50;13.43;;;;;;;;;;6289082;28;20193;-62
2023/06/22 16:19:34;;;;;;;18.37;13.87;;;;;;;;;;6276993;28;20227;-62
2023/06/22 16:22:35;;;;;;;14.50;12.47;;;;;;;;;;6285258;28;20201;-62
2023/06/22 16:25:36;;;;;;;17.50;12.53;;;;;;;;;;6285038;28;20210;-62
2023/06/22 16:28:37;;;;;;;14.20;12.77;;;;;;;;;;6281829;28;20190;-62
2023/06/22 16:31:38;;;;;;;15.43;13.83;;;;;;;;;;6277295;28;20193;-62
2023/06/22 16:34:39;;;;;;;16.67;14.13;;;;;;;;;;6265581;28;20204;-62
2023/06/22 16:37:40;;;;;;;15.93;13.67;;;;;;;;;;6298177;28;20192;-62
2023/06/22 16:40:41;;;;;;;14.93;13.43;;;;;;;;;;6287197;28;20288;-61
2023/06/22 16:43:42;;;;;;;14.97;12.87;;;;;;;;;;6276334;28;20217;-62
2023/06/22 16:46:44;;;;;;;16.07;14.57;;;;;;;;;;6275993;28;20236;-62
2023/06/22 16:49:45;;;;;;;15.87;14.13;;;;;;;;;;6297237;28;20186;-63
2023/06/22 16:52:46;;;;;;;17.80;15.07;;;;;;;;;;6267693;28;20227;-62
2023/06/22 16:55:52;;;;;;;15.93;14.23;;;;;;;;;;6292528;28;20235;-62
2023/06/22 16:58:54;;;;;;;16.73;14.77;;;;;;;;;;6288149;28;20197;-63
2023/06/22 17:01:57;;;;;;;16.70;15.13;;;;;;;;;;6297646;28;20197;-63
2023/06/22 17:04:58;;;;;;;16.33;14.63;;;;;;;;;;6285881;28;20217;-63
2023/06/22 17:08:02;;;;;;;16.67;14.93;;;;;;;;;;6281563;28;20193;-63
2023/06/22 17:11:03;;;;;;;16.50;14.73;;;;;;;;;;6290590;28;20177;-64
2023/06/22 17:14:05;;;;;;;15.80;14.20;;;;;;;;;;6283075;28;20190;-63
2023/06/22 17:17:06;;;;;;;19.50;14.57;;;;;;;;;;6280130;28;20276;-63
2023/06/22 17:20:08;;;;;;;17.03;15.27;;;;;;;;;;6272611;28;20205;-63
2023/06/22 17:23:10;;;;;;;11.73;10.50;;;;;;;;;;6290579;28;20189;-63
2023/06/22 17:26:11;;;;;;;13.80;12.40;;;;;;;;;;6312468;28;20193;-63
2023/06/22 17:29:13;;;;;;;16.30;13.63;;;;;;;;;;6280836;28;20189;-63
2023/06/22 17:32:14;;;;;;;17.53;15.53;;;;;;;;;;6288194;28;20189;-64
2023/06/22 17:35:15;;;;;;;17.67;15.90;;;;;;;;;;6276865;28;20204;-63